createdAt,value
2019-01-30T00:04:13.033Z,0.10
2019-01-30T00:06:20.060Z,0.10
2019-01-30T00:09:00.458Z,0.10
2019-01-30T00:11:08.399Z,0.00
2019-01-30T00:13:31.636Z,0.00
2019-01-30T00:18:53.799Z,-0.10
2019-01-30T00:20:48.943Z,-0.10
2019-01-30T00:23:10.292Z,-0.10
2019-01-30T00:25:25.995Z,-0.10
2019-01-30T00:32:39.359Z,-0.20
2019-01-30T00:37:19.627Z,-0.30
2019-01-30T00:39:35.221Z,-0.30
2019-01-30T00:41:43.359Z,-0.30
2019-01-30T00:46:55.583Z,-0.30
2019-01-30T00:52:03.187Z,-0.30
2019-01-30T00:54:32.051Z,-0.30
2019-01-30T00:56:51.105Z,-0.30
2019-01-30T01:04:28.450Z,-0.30
2019-01-30T01:07:10.835Z,-0.30
2019-01-30T01:09:36.463Z,-0.30
2019-01-30T01:12:01.424Z,-0.20
2019-01-30T01:14:24.548Z,-0.20
2019-01-30T01:16:47.788Z,-0.10
2019-01-30T01:19:29.051Z,-0.10
2019-01-30T01:21:31.218Z,-0.10
2019-01-30T01:26:08.585Z,-0.10
2019-01-30T01:30:47.238Z,-0.10
2019-01-30T01:33:07.751Z,-0.10
2019-01-30T01:35:24.788Z,-0.10
2019-01-30T01:37:46.383Z,-0.10
2019-01-30T01:40:30.065Z,0.00
2019-01-30T01:42:55.861Z,0.00
2019-01-30T01:48:10.266Z,0.00
2019-01-30T01:50:47.169Z,0.10
2019-01-30T01:52:58.519Z,0.10
2019-01-30T01:55:40.715Z,0.10
2019-01-30T01:58:06.712Z,0.10
2019-01-30T02:03:13.730Z,0.20
2019-01-30T02:05:36.888Z,0.20
2019-01-30T02:08:00.227Z,0.20
2019-01-30T02:10:23.728Z,0.20
2019-01-30T02:12:46.844Z,0.20
2019-01-30T02:17:54.707Z,0.20
2019-01-30T02:20:12.951Z,0.20
2019-01-30T02:22:28.891Z,0.30
2019-01-30T02:24:44.360Z,0.30
2019-01-30T02:26:59.810Z,0.30
2019-01-30T02:29:16.437Z,0.30
2019-01-30T02:31:32.319Z,0.30
2019-01-30T02:33:48.480Z,0.30
2019-01-30T02:36:04.360Z,0.30
2019-01-30T02:38:19.730Z,0.30
2019-01-30T02:40:37.947Z,0.30
2019-01-30T02:42:53.499Z,0.30
2019-01-30T02:45:27.720Z,0.30
2019-01-30T02:47:36.169Z,0.30
2019-01-30T02:49:52.075Z,0.30
2019-01-30T02:52:35.737Z,0.30
2019-01-30T02:55:19.378Z,0.20
2019-01-30T02:57:42.482Z,0.20
2019-01-30T03:00:09.682Z,0.20
2019-01-30T03:05:11.058Z,0.20
2019-01-30T03:07:51.209Z,0.10
2019-01-30T03:12:59.214Z,0.10
2019-01-30T03:15:26.346Z,0.10
2019-01-30T03:20:15.648Z,0.00
2019-01-30T03:22:34.258Z,0.00
2019-01-30T03:27:10.306Z,0.00
2019-01-30T03:29:28.734Z,0.00
2019-01-30T03:31:44.704Z,0.00
2019-01-30T03:34:00.362Z,0.00
2019-01-30T03:36:16.137Z,0.00
2019-01-30T03:38:31.895Z,0.10
2019-01-30T03:43:05.087Z,0.00
2019-01-30T03:45:49.048Z,0.10
2019-01-30T03:50:58.280Z,0.10
2019-01-30T03:58:22.772Z,0.10
2019-01-30T04:00:46.984Z,0.10
2019-01-30T04:03:10.147Z,0.10
2019-01-30T04:05:33.333Z,0.10
2019-01-30T04:07:56.485Z,0.10
2019-01-30T04:10:20.309Z,0.10
2019-01-30T04:12:29.215Z,0.10
2019-01-30T04:17:40.723Z,0.10
2019-01-30T04:20:24.496Z,0.10
2019-01-30T04:22:43.615Z,0.10
2019-01-30T04:25:06.595Z,0.10
2019-01-30T04:27:32.190Z,0.10
2019-01-30T04:29:55.532Z,0.10
2019-01-30T04:32:39.154Z,0.10
2019-01-30T04:35:02.182Z,0.10
2019-01-30T04:37:27.126Z,0.10
2019-01-30T04:39:52.395Z,0.20
2019-01-30T04:42:17.542Z,0.20
2019-01-30T04:44:40.917Z,0.20
2019-01-30T04:47:04.104Z,0.20
2019-01-30T04:49:27.215Z,0.20
2019-01-30T04:51:50.169Z,0.20
2019-01-30T04:54:13.201Z,0.30
2019-01-30T04:56:36.620Z,0.30
2019-01-30T04:59:00.396Z,0.30
2019-01-30T05:01:26.149Z,0.30
2019-01-30T05:03:49.281Z,0.30
2019-01-30T05:06:12.342Z,0.30
2019-01-30T05:08:35.740Z,0.30
2019-01-30T05:10:58.879Z,0.30
2019-01-30T05:13:22.127Z,0.30
2019-01-30T05:15:45.209Z,0.30
2019-01-30T05:18:25.056Z,0.30
2019-01-30T05:23:36.069Z,0.30
2019-01-30T05:26:02.331Z,0.20
2019-01-30T05:28:28.020Z,0.20
2019-01-30T05:30:51.343Z,0.20
2019-01-30T05:33:26.373Z,0.20
2019-01-30T05:35:44.820Z,0.20
2019-01-30T05:40:38.222Z,0.10
2019-01-30T05:43:01.352Z,0.10
2019-01-30T05:50:52.934Z,0.00
2019-01-30T05:53:21.460Z,-0.10
2019-01-30T05:56:05.131Z,-0.10
2019-01-30T06:04:38.256Z,-0.20
2019-01-30T06:09:28.188Z,-0.20
2019-01-30T06:20:04.260Z,-0.20
2019-01-30T06:34:47.229Z,0.00
2019-01-30T07:20:14.112Z,0.30
2019-01-30T07:27:48.040Z,0.40
2019-01-30T08:06:07.866Z,0.90
2019-01-30T08:07:34.294Z,1.00
2019-01-30T09:15:40.339Z,2.90
2019-01-30T10:56:29.453Z,4.00
2019-01-30T11:01:02.146Z,3.90
2019-01-30T11:03:17.896Z,3.90
2019-01-30T11:07:54.128Z,3.60
2019-01-30T11:10:09.980Z,3.50
2019-01-30T11:12:28.438Z,3.40
2019-01-30T11:14:45.824Z,3.40
2019-01-30T11:17:01.677Z,3.30
2019-01-30T11:19:17.128Z,3.20
2019-01-30T11:24:18.664Z,3.10
2019-01-30T11:28:42.377Z,2.90
2019-01-30T11:30:58.465Z,2.80
2019-01-30T11:33:14.332Z,2.90
2019-01-30T11:35:30.522Z,2.90
2019-01-30T11:37:48.681Z,2.90
2019-01-30T11:39:53.142Z,2.90
2019-01-30T11:42:19.463Z,2.90
2019-01-30T11:45:03.326Z,3.00
2019-01-30T11:47:45.757Z,3.00
2019-01-30T11:52:33.697Z,3.10
2019-01-30T11:54:56.999Z,3.20
2019-01-30T11:57:22.518Z,3.20
2019-01-30T11:59:45.693Z,3.20
2019-01-30T12:02:27.811Z,3.20
2019-01-30T12:04:53.624Z,3.30
2019-01-30T12:07:16.609Z,3.40
2019-01-30T12:09:39.824Z,3.50
2019-01-30T12:22:03.936Z,3.80
2019-01-30T12:26:38.995Z,3.70
2019-01-30T12:28:54.357Z,3.60
2019-01-30T12:31:09.774Z,3.60
2019-01-30T12:33:25.460Z,3.50
2019-01-30T12:35:44.942Z,3.50
2019-01-30T12:38:08.317Z,3.50
2019-01-30T12:43:13.399Z,3.50
2019-01-30T12:45:37.655Z,3.40
2019-01-30T12:47:41.903Z,3.40
2019-01-30T12:50:26.860Z,3.40
2019-01-30T12:55:19.089Z,3.20
2019-01-30T12:57:43.995Z,3.20
2019-01-30T13:00:14.178Z,3.20
2019-01-30T13:02:37.385Z,3.10
2019-01-30T13:05:01.406Z,3.10
2019-01-30T13:07:27.515Z,3.00
2019-01-30T13:09:53.596Z,3.00
2019-01-30T13:12:35.822Z,3.00
2019-01-30T13:14:58.890Z,3.00
2019-01-30T13:19:51.692Z,2.90
2019-01-30T13:24:24.877Z,2.80
2019-01-30T13:26:28.943Z,2.80
2019-01-30T13:28:51.953Z,2.80
2019-01-30T13:31:15.095Z,2.80
2019-01-30T13:36:08.595Z,2.70
2019-01-30T13:38:31.676Z,2.60
2019-01-30T13:40:56.548Z,2.60
2019-01-30T13:43:19.535Z,2.60
2019-01-30T13:45:42.895Z,2.70
2019-01-30T13:48:28.246Z,2.70
2019-01-30T13:51:11.323Z,2.70
2019-01-30T13:53:37.038Z,2.70
2019-01-30T13:55:59.114Z,2.70
2019-01-30T13:58:22.136Z,2.70
2019-01-30T14:03:27.527Z,2.70
2019-01-30T14:05:31.827Z,2.70
2019-01-30T14:07:54.871Z,2.70
2019-01-30T14:10:17.936Z,2.70
2019-01-30T14:12:41.076Z,2.80
2019-01-30T14:15:19.237Z,2.80
2019-01-30T14:17:32.404Z,2.80
2019-01-30T14:19:56.559Z,2.80
2019-01-30T14:24:35.135Z,2.80
2019-01-30T14:29:19.888Z,2.70
2019-01-30T14:31:36.230Z,2.60
2019-01-30T14:33:52.457Z,2.60
2019-01-30T14:36:08.708Z,2.60
2019-01-30T14:38:17.094Z,2.60
2019-01-30T14:40:42.137Z,2.60
2019-01-30T14:45:41.144Z,2.60
2019-01-30T14:53:35.765Z,2.70
2019-01-30T16:47:40.759Z,2.30
2019-01-30T16:54:52.142Z,2.40
2019-01-30T17:30:22.870Z,2.40
2019-01-30T17:42:48.581Z,2.30
2019-01-30T17:52:33.641Z,2.30
2019-01-30T19:02:55.882Z,1.80
2019-01-30T19:35:41.902Z,1.80
2019-01-30T20:26:05.998Z,1.60
2019-01-30T20:41:44.971Z,1.70
2019-01-30T21:03:07.964Z,1.80
2019-01-30T21:05:33.046Z,1.80
2019-01-30T21:07:56.381Z,1.80
2019-01-30T21:13:15.694Z,1.80
2019-01-30T21:21:38.826Z,1.70
2019-01-30T21:24:07.126Z,1.70
2019-01-30T22:25:19.569Z,1.80
2019-01-30T22:42:34.764Z,1.90
2019-01-30T22:57:59.465Z,1.90
2019-01-30T23:14:28.809Z,1.90
2019-01-30T23:33:27.158Z,2.00
2019-01-30T23:47:06.096Z,1.90
2019-01-30T23:51:48.149Z,2.00
